Capitol Logistics 973


HKJK
Jomo Kenyatta International Airport
Nairobi, KE
FAOR
O.R. Tambo International Airport
Johannesburg, ZA

Activity Log

Date Flight Route Aircraft Duration
No Flights Yet

Route Details

Aircraft Information
Primary: Boeing 767-300BDSF
Backup: Not Available
Route Data
Distance: 1566nm
Sched. Duration: 3h 45m
Avg. Duration: 0h 00m (-345m)
Times Flown: 0
Recm'd Route: Not Available
Planned Altitude: 34,000ft
Origin Wx: HKJK 271100Z 04016KT 9999 BKN025 26/17 Q1020 NOSIG
Dest. Wx: FAOR 271100Z 35009KT 9999 FEW048 26/11 Q1021 NOSIG
Notes:

Financial History
Total Freight: 0lbs
Average Load: 0lbs/flt
Fuel Used: 0lbs
Avg. Fuel Used: 0lbs/flt
Fuel Expense: $0
Avg. Fuel Expense: $0
Avg. Fuel Cost: $0/lbs
Total Gross Income: $0
Pilot Pay: $0
Total Expenses: $0
Total Revenue: $0
Average Revenue: $0